Estació municipal de Aiguafreda (Osona, P.N. del Montseny)

Consulta les dades en temps real de l'estació municipal de Aiguafreda





Hora UTC 09:40
Temperatura 30.3 ºC
Sòl 15 cm 35.2 ºC
Humitat 43.7 %
Pressió 1021.3 hPa
Pluja 0.0 mm
Velocitat vent 0.6 km/h
Direcció vent SSE

Dades diàries 2026-09-02



Hora UTC (hivern +1h; estiu +2h)
Temperatura (ºC) Humitat (%) Pressió (hPa) Velocitat vent (km/h) Precipitació (mm)
Hora UTC Aire Sòl 15 cm Humitat Pressió Vel. Dir. Vel. Max Dir. Intent. màx 5 min.
00:05 18.6 17.3 87.5 1020.8 0.0 NNE 0.0 NNW 0.0
00:10 18.5 17.3 87.6 1020.8 0.0 NNE 0.0 NW 0.0
00:15 18.5 17.3 87.6 1020.8 0.0 NNE 0.0 NNW 0.0
00:20 18.5 17.3 87.6 1020.8 0.0 NNE 0.0 N 0.0
00:25 18.5 17.2 87.7 1020.8 0.0 NNE 0.0 NW 0.0
00:30 18.4 17.2 87.7 1020.7 0.0 NNE 0.0 NW 0.0
00:35 18.4 17.1 87.8 1020.8 0.0 NNE 0.0 ENE 0.0
00:40 18.4 17.1 87.9 1020.8 0.0 NNE 0.0 NNW 0.0
00:45 18.3 17.0 87.9 1020.8 0.0 NNE 0.0 NNW 0.0
00:50 18.3 16.9 88.1 1020.8 0.0 NNE 0.0 NW 0.0
00:55 18.2 16.9 88.3 1020.8 0.0 NNE 0.0 NW 0.0
01:00 18.1 16.8 88.4 1020.8 0.0 NNE 0.0 NW 0.0
01:05 18.1 16.9 88.6 1020.8 0.0 NNE 0.0 SSE 0.0
01:10 18.1 16.8 88.6 1020.8 0.0 NNE 0.0 ESE 0.0
01:15 18.1 16.9 88.7 1020.8 0.0 NNE 0.0 SSE 0.0
01:20 18.1 16.9 88.7 1020.7 0.0 NNE 0.0 SW 0.0
01:25 18.1 16.9 88.7 1020.6 0.0 NNE 0.0 SW 0.0
01:30 18.0 16.8 88.6 1020.5 0.0 NNE 0.0 NW 0.0
01:35 18.0 16.8 88.7 1020.5 0.0 NNE 0.0 NW 0.0
01:40 17.9 16.8 89.0 1020.4 0.0 NNE 0.0 NW 0.0
01:45 18.0 16.8 89.2 1020.5 0.0 NNE 0.0 NW 0.0
01:50 18.0 17.0 89.2 1020.6 0.7 NNW 8.8 0.0
01:55 18.0 17.0 89.2 1020.5 0.0 NNE 0.0 NE 0.0
02:00 18.0 17.0 89.0 1020.6 0.2 SE 6.1 SSE 0.0
02:05 18.1 17.0 89.3 1020.5 0.3 SE 6.1 SSE 0.0
02:10 18.1 17.0 88.9 1020.5 0.0 NNE 0.0 SE 0.0
02:15 18.1 16.9 88.7 1020.6 0.0 NNE 0.0 SW 0.0
02:20 18.1 16.9 88.6 1020.5 0.0 NNE 0.0 S 0.0
02:25 18.0 16.8 88.6 1020.5 0.0 NNE 0.0 S 0.0
02:30 17.9 16.7 88.9 1020.5 0.0 NNE 0.0 S 0.0
02:35 17.9 16.6 89.1 1020.6 0.0 NNE 0.0 S 0.0
02:40 17.8 16.5 89.5 1020.6 0.0 NNE 0.0 W 0.0
02:45 17.8 16.6 89.6 1020.6 0.0 NNE 0.0 WSW 0.0
02:50 17.8 16.6 89.6 1020.6 0.0 NNE 0.0 NNW 0.0
02:55 17.8 16.5 89.6 1020.6 0.0 NNE 0.0 SSE 0.0
03:00 17.7 16.4 89.8 1020.7 0.0 NNE 0.0 SSE 0.0
03:05 17.7 16.3 89.9 1020.6 0.0 NNE 0.0 SSE 0.0
03:10 17.6 16.3 90.1 1020.6 0.0 NNE 0.0 NE 0.0
03:15 17.6 16.3 90.3 1020.7 0.0 NNE 0.0 W 0.0
03:20 17.6 16.2 90.2 1020.6 0.0 NNE 0.0 W 0.0
03:25 17.6 16.2 90.3 1020.6 0.0 NNE 0.0 SSE 0.0
03:30 17.5 16.2 90.4 1020.7 0.0 NNE 0.0 SE 0.0
03:35 17.5 16.1 90.4 1020.7 0.0 NNE 0.0 SE 0.0
03:40 17.5 16.1 90.4 1020.7 0.0 NNE 0.0 SE 0.0
03:45 17.4 16.0 90.6 1020.6 0.0 NNE 0.0 SE 0.0
03:50 17.4 16.1 90.8 1020.6 0.0 NNE 0.0 SE 0.0
03:55 17.4 16.1 90.7 1020.6 0.0 NNE 0.0 SE 0.0
04:00 17.4 16.0 90.7 1020.6 0.0 NNE 0.0 SE 0.0
04:05 17.4 16.0 90.8 1020.6 0.0 NNE 0.0 WNW 0.0
04:10 17.4 16.0 91.0 1020.5 0.0 NNE 0.0 NNW 0.0
04:15 17.4 16.0 90.9 1020.5 0.0 NNE 0.0 NW 0.0
04:20 17.3 16.1 90.8 1020.5 0.0 NNE 0.0 SE 0.0
04:25 17.3 15.9 90.7 1020.5 0.0 NNE 0.0 ESE 0.0
04:30 17.3 15.8 90.8 1020.4 0.0 NNE 0.0 ESE 0.0
04:35 17.2 15.8 91.0 1020.4 0.0 NNE 0.0 ESE 0.0
04:40 17.2 15.8 91.3 1020.4 0.0 NNE 0.0 N 0.0
04:45 17.2 15.7 91.4 1020.4 0.0 NNE 0.0 N 0.0
04:50 17.2 15.7 91.5 1020.4 0.0 NNE 0.0 N 0.0
04:55 17.1 15.7 91.5 1020.5 0.0 NNE 0.0 SSW 0.0
05:00 17.1 15.7 91.5 1020.5 0.0 NNE 0.0 SSW 0.0
05:05 17.1 15.7 91.6 1020.6 0.0 NNE 0.0 S 0.0
05:10 17.1 15.7 91.6 1020.6 0.0 NNE 0.0 S 0.0
05:15 17.1 15.6 91.7 1020.6 0.0 NNE 0.0 E 0.0
05:20 17.1 15.6 91.8 1020.6 0.0 NNE 0.0 E 0.0
05:25 17.1 15.7 91.9 1020.7 0.0 NNE 0.0 NNW 0.0
05:30 17.1 15.7 91.8 1020.7 0.0 NNE 0.0 NNW 0.0
05:35 17.2 15.7 91.9 1020.7 0.0 NNE 0.0 NNW 0.0
05:40 17.2 15.8 91.9 1020.7 0.0 NNE 0.0 NNW 0.0
05:45 17.2 15.9 92.0 1020.8 0.0 NNE 0.0 NNW 0.0
05:50 17.3 16.0 92.2 1020.8 0.0 NNE 0.0 SE 0.0
05:55 17.4 16.1 92.2 1020.8 0.0 NNE 0.0 SE 0.0
06:00 17.5 16.2 92.2 1020.9 0.0 NNE 0.0 SE 0.0
06:05 17.6 16.4 92.2 1020.9 0.0 NNE 0.0 NE 0.0
06:10 17.7 16.6 92.1 1020.9 0.0 NNE 0.0 ESE 0.0
06:15 17.8 16.7 92.0 1021.0 0.0 NNE 0.0 ESE 0.0
06:20 17.9 16.8 91.9 1021.0 0.0 NNE 0.0 ESE 0.0
06:25 18.1 17.0 91.7 1021.0 0.0 NNE 0.0 ENE 0.0
06:30 18.2 17.3 91.3 1021.1 0.0 NNE 0.0 SSW 0.0
06:35 18.4 17.6 90.8 1021.1 0.0 NNE 0.0 ESE 0.0
06:40 18.7 17.8 90.0 1021.2 0.0 NNE 0.0 SSE 0.0
06:45 18.9 18.0 89.1 1021.3 0.0 NNE 0.0 SSE 0.0
06:50 19.2 18.3 88.3 1021.4 0.0 NNE 0.0 SSE 0.0
06:55 19.5 18.6 87.2 1021.4 0.0 NNE 0.0 S 0.0
07:00 19.8 18.9 86.0 1021.4 0.0 NNE 0.0 SSE 0.0
07:05 20.1 19.3 84.7 1021.4 0.0 NE 3.4 NE 0.0
07:10 20.5 19.8 82.8 1021.4 0.0 NNE 0.0 WNW 0.0
07:15 20.8 20.0 81.4 1021.3 0.0 NNE 0.0 NNE 0.0
07:20 21.1 20.2 80.3 1021.3 0.0 NNE 0.0 N 0.0
07:25 21.4 20.5 79.2 1021.2 0.0 NNE 0.0 NNE 0.0
07:30 21.7 20.8 78.0 1021.3 0.0 NNE 0.0 E 0.0
07:35 22.0 21.1 76.7 1021.3 0.0 NNE 0.0 E 0.0
07:40 22.5 21.4 74.5 1021.3 3.0 ENE 14.2 NNE 0.0
07:45 23.0 21.7 71.7 1021.3 1.8 ENE 8.8 ENE 0.0
07:50 23.6 21.9 69.0 1021.3 0.2 SE 6.1 SE 0.0
07:55 24.1 22.5 67.3 1021.3 1.0 SSE 8.8 SW 0.0
08:00 24.5 23.0 66.1 1021.3 2.5 ENE 11.5 NE 0.0
08:05 24.7 23.4 65.4 1021.3 4.5 NE 8.8 N 0.0
08:10 25.1 24.0 64.3 1021.3 0.8 ENE 8.8 NE 0.0
08:15 25.6 24.8 62.9 1021.3 1.7 NNE 8.8 N 0.0
08:20 25.9 26.0 61.7 1021.3 0.1 WNW 3.4 NW 0.0
08:25 26.5 27.3 59.8 1021.3 1.1 WNW 8.8 NNW 0.0
08:30 26.9 28.4 58.6 1021.3 0.9 ENE 6.1 ESE 0.0
08:35 26.9 28.7 58.0 1021.3 1.1 ENE 11.5 ENE 0.0
08:40 27.0 29.4 57.6 1021.3 0.0 NNE 0.0 NNW 0.0
08:45 27.3 30.5 56.5 1021.4 0.0 NNE 0.0 WNW 0.0
08:50 27.8 31.7 54.6 1021.5 0.0 NNE 0.0 SE 0.0
08:55 28.4 32.4 52.2 1021.5 0.0 NNE 0.0 SSW 0.0
09:00 28.8 32.5 50.8 1021.4 0.0 NNE 0.0 SW 0.0
09:05 29.2 33.1 49.2 1021.4 0.0 NNE 0.0 ESE 0.0
09:10 29.3 33.8 47.9 1021.4 0.7 ESE 6.1 E 0.0
09:15 29.2 33.8 47.3 1021.3 2.5 NNW 8.8 NNW 0.0
09:20 29.2 33.6 46.9 1021.4 0.5 NE 8.8 E 0.0
09:25 29.5 34.1 45.8 1021.4 2.0 NNE 8.8 E 0.0
09:30 29.7 34.3 44.8 1021.5 1.8 NW 6.1 WNW 0.0
09:35 29.7 35.2 44.3 1021.4 0.0 NNE 0.0 NNW 0.0
09:40 30.3 35.2 43.7 1021.3 0.6 SSE 8.8 S 0.0
Màxima 30.3 35.2 92.2 1021.5 4.5 NE 14.2 NNE 0.0
Mínima 17.1 15.6 43.7 1020.4
Total 0.0